sensor_id;sensor_type;location;lat;lon;timestamp;P1;durP1;ratioP1;P2;durP2;ratioP2
6280;SDS011;3173;48.204;11.612;2022-08-01T00:01:45;3.50;;;1.67;;
6280;SDS011;3173;48.204;11.612;2022-08-01T00:04:11;5.03;;;2.00;;
6280;SDS011;3173;48.204;11.612;2022-08-01T00:06:37;2.77;;;1.70;;
6280;SDS011;3173;48.204;11.612;2022-08-01T00:09:03;2.63;;;1.70;;
6280;SDS011;3173;48.204;11.612;2022-08-01T00:11:29;8.10;;;2.00;;
6280;SDS011;3173;48.204;11.612;2022-08-01T00:13:55;1.93;;;1.70;;
6280;SDS011;3173;48.204;11.612;2022-08-01T00:16:21;2.33;;;1.77;;
6280;SDS011;3173;48.204;11.612;2022-08-01T00:18:48;2.20;;;1.73;;
6280;SDS011;3173;48.204;11.612;2022-08-01T00:21:14;4.37;;;2.43;;
6280;SDS011;3173;48.204;11.612;2022-08-01T00:23:40;4.57;;;1.97;;
6280;SDS011;3173;48.204;11.612;2022-08-01T00:26:06;6.60;;;2.23;;
6280;SDS011;3173;48.204;11.612;2022-08-01T00:28:32;2.87;;;1.57;;
6280;SDS011;3173;48.204;11.612;2022-08-01T00:30:58;6.53;;;2.00;;
6280;SDS011;3173;48.204;11.612;2022-08-01T00:33:24;3.70;;;2.00;;
6280;SDS011;3173;48.204;11.612;2022-08-01T00:35:50;3.60;;;2.00;;
6280;SDS011;3173;48.204;11.612;2022-08-01T00:38:16;2.67;;;1.70;;
6280;SDS011;3173;48.204;11.612;2022-08-01T00:40:42;6.27;;;2.30;;
6280;SDS011;3173;48.204;11.612;2022-08-01T00:43:07;2.73;;;1.70;;
6280;SDS011;3173;48.204;11.612;2022-08-01T00:45:34;3.27;;;1.70;;
6280;SDS011;3173;48.204;11.612;2022-08-01T00:48:00;2.70;;;1.83;;
6280;SDS011;3173;48.204;11.612;2022-08-01T00:50:26;1.87;;;1.60;;
6280;SDS011;3173;48.204;11.612;2022-08-01T00:52:53;5.40;;;1.60;;
6280;SDS011;3173;48.204;11.612;2022-08-01T00:55:19;5.63;;;2.57;;
6280;SDS011;3173;48.204;11.612;2022-08-01T00:57:45;3.10;;;1.53;;
6280;SDS011;3173;48.204;11.612;2022-08-01T01:00:12;2.80;;;1.67;;
6280;SDS011;3173;48.204;11.612;2022-08-01T01:02:38;4.83;;;1.90;;
6280;SDS011;3173;48.204;11.612;2022-08-01T01:05:04;2.17;;;1.80;;
6280;SDS011;3173;48.204;11.612;2022-08-01T01:13:02;3.27;;;2.00;;
6280;SDS011;3173;48.204;11.612;2022-08-01T01:15:34;2.53;;;1.60;;
6280;SDS011;3173;48.204;11.612;2022-08-01T01:20:35;3.83;;;1.77;;
6280;SDS011;3173;48.204;11.612;2022-08-01T01:25:51;2.67;;;2.10;;
6280;SDS011;3173;48.204;11.612;2022-08-01T01:28:27;2.93;;;2.00;;
6280;SDS011;3173;48.204;11.612;2022-08-01T01:30:55;3.43;;;1.93;;
6280;SDS011;3173;48.204;11.612;2022-08-01T01:33:23;2.83;;;2.13;;
6280;SDS011;3173;48.204;11.612;2022-08-01T01:35:59;2.40;;;2.20;;
6280;SDS011;3173;48.204;11.612;2022-08-01T01:38:28;4.13;;;2.30;;
6280;SDS011;3173;48.204;11.612;2022-08-01T01:40:54;4.37;;;2.20;;
6280;SDS011;3173;48.204;11.612;2022-08-01T01:43:21;5.10;;;2.00;;
6280;SDS011;3173;48.204;11.612;2022-08-01T01:45:48;6.20;;;2.00;;
6280;SDS011;3173;48.204;11.612;2022-08-01T01:48:15;3.93;;;2.10;;
6280;SDS011;3173;48.204;11.612;2022-08-01T01:50:42;3.63;;;1.90;;
6280;SDS011;3173;48.204;11.612;2022-08-01T01:53:10;3.60;;;2.23;;
6280;SDS011;3173;48.204;11.612;2022-08-01T01:55:38;11.13;;;3.30;;
6280;SDS011;3173;48.204;11.612;2022-08-01T01:58:05;4.40;;;1.90;;
6280;SDS011;3173;48.204;11.612;2022-08-01T02:00:31;3.90;;;2.40;;
6280;SDS011;3173;48.204;11.612;2022-08-01T02:02:58;4.83;;;2.30;;
6280;SDS011;3173;48.204;11.612;2022-08-01T02:05:24;3.80;;;2.20;;
6280;SDS011;3173;48.204;11.612;2022-08-01T02:07:51;2.23;;;1.70;;
6280;SDS011;3173;48.204;11.612;2022-08-01T02:10:19;6.63;;;1.80;;
6280;SDS011;3173;48.204;11.612;2022-08-01T02:12:45;6.93;;;1.90;;
6280;SDS011;3173;48.204;11.612;2022-08-01T02:15:12;3.67;;;2.00;;
6280;SDS011;3173;48.204;11.612;2022-08-01T02:17:40;5.40;;;1.93;;
6280;SDS011;3173;48.204;11.612;2022-08-01T02:20:07;4.13;;;1.90;;
6280;SDS011;3173;48.204;11.612;2022-08-01T02:22:33;3.30;;;2.10;;
6280;SDS011;3173;48.204;11.612;2022-08-01T02:25:03;3.03;;;2.10;;
6280;SDS011;3173;48.204;11.612;2022-08-01T02:27:37;3.20;;;2.20;;
6280;SDS011;3173;48.204;11.612;2022-08-01T02:30:05;2.60;;;2.17;;
6280;SDS011;3173;48.204;11.612;2022-08-01T02:32:38;4.03;;;1.93;;
6280;SDS011;3173;48.204;11.612;2022-08-01T02:35:07;4.17;;;2.07;;
6280;SDS011;3173;48.204;11.612;2022-08-01T02:37:36;3.67;;;2.10;;
6280;SDS011;3173;48.204;11.612;2022-08-01T02:40:02;6.60;;;2.17;;
6280;SDS011;3173;48.204;11.612;2022-08-01T02:42:29;3.70;;;2.03;;
6280;SDS011;3173;48.204;11.612;2022-08-01T02:44:56;2.60;;;2.07;;
6280;SDS011;3173;48.204;11.612;2022-08-01T02:47:22;5.17;;;2.50;;
6280;SDS011;3173;48.204;11.612;2022-08-01T02:49:49;6.43;;;2.20;;
6280;SDS011;3173;48.204;11.612;2022-08-01T02:52:17;3.40;;;1.77;;
6280;SDS011;3173;48.204;11.612;2022-08-01T02:54:45;2.70;;;2.20;;
6280;SDS011;3173;48.204;11.612;2022-08-01T02:57:11;4.70;;;2.57;;
6280;SDS011;3173;48.204;11.612;2022-08-01T02:59:38;3.67;;;2.07;;
6280;SDS011;3173;48.204;11.612;2022-08-01T03:02:04;2.10;;;1.70;;
6280;SDS011;3173;48.204;11.612;2022-08-01T03:04:32;2.60;;;1.70;;
6280;SDS011;3173;48.204;11.612;2022-08-01T03:06:58;2.87;;;2.03;;
6280;SDS011;3173;48.204;11.612;2022-08-01T03:09:26;2.57;;;2.13;;
6280;SDS011;3173;48.204;11.612;2022-08-01T03:11:53;1.83;;;1.43;;
6280;SDS011;3173;48.204;11.612;2022-08-01T03:14:19;3.17;;;1.83;;
6280;SDS011;3173;48.204;11.612;2022-08-01T03:16:46;7.10;;;2.23;;
6280;SDS011;3173;48.204;11.612;2022-08-01T03:19:13;4.17;;;1.70;;
6280;SDS011;3173;48.204;11.612;2022-08-01T03:21:39;2.23;;;2.00;;
6280;SDS011;3173;48.204;11.612;2022-08-01T03:24:06;3.90;;;1.97;;
6280;SDS011;3173;48.204;11.612;2022-08-01T03:26:33;2.70;;;1.80;;
6280;SDS011;3173;48.204;11.612;2022-08-01T03:29:04;5.53;;;1.90;;
6280;SDS011;3173;48.204;11.612;2022-08-01T03:31:35;3.73;;;2.07;;
6280;SDS011;3173;48.204;11.612;2022-08-01T03:34:03;4.50;;;2.17;;
6280;SDS011;3173;48.204;11.612;2022-08-01T03:36:29;3.70;;;2.10;;
6280;SDS011;3173;48.204;11.612;2022-08-01T03:38:56;3.20;;;2.03;;
6280;SDS011;3173;48.204;11.612;2022-08-01T03:41:23;2.53;;;1.97;;
6280;SDS011;3173;48.204;11.612;2022-08-01T03:43:57;4.30;;;2.30;;
6280;SDS011;3173;48.204;11.612;2022-08-01T03:46:26;3.43;;;1.83;;
6280;SDS011;3173;48.204;11.612;2022-08-01T03:48:54;2.40;;;1.73;;
6280;SDS011;3173;48.204;11.612;2022-08-01T03:51:21;3.37;;;1.90;;
6280;SDS011;3173;48.204;11.612;2022-08-01T03:53:48;2.93;;;2.20;;
6280;SDS011;3173;48.204;11.612;2022-08-01T03:56:16;3.00;;;1.97;;
6280;SDS011;3173;48.204;11.612;2022-08-01T03:58:44;3.30;;;1.87;;
6280;SDS011;3173;48.204;11.612;2022-08-01T04:01:10;2.73;;;2.00;;
6280;SDS011;3173;48.204;11.612;2022-08-01T04:03:36;4.03;;;2.20;;
6280;SDS011;3173;48.204;11.612;2022-08-01T04:06:06;4.10;;;2.13;;
6280;SDS011;3173;48.204;11.612;2022-08-01T04:08:36;3.90;;;2.17;;
6280;SDS011;3173;48.204;11.612;2022-08-01T04:11:02;2.63;;;2.00;;
6280;SDS011;3173;48.204;11.612;2022-08-01T04:13:28;3.97;;;2.07;;
6280;SDS011;3173;48.204;11.612;2022-08-01T04:15:54;2.70;;;1.93;;
6280;SDS011;3173;48.204;11.612;2022-08-01T04:18:20;5.17;;;2.50;;
6280;SDS011;3173;48.204;11.612;2022-08-01T04:20:46;3.73;;;2.87;;
6280;SDS011;3173;48.204;11.612;2022-08-01T04:23:13;8.77;;;2.10;;
6280;SDS011;3173;48.204;11.612;2022-08-01T04:25:39;8.13;;;3.30;;
6280;SDS011;3173;48.204;11.612;2022-08-01T04:28:07;3.13;;;2.20;;
6280;SDS011;3173;48.204;11.612;2022-08-01T04:30:37;4.30;;;1.90;;
6280;SDS011;3173;48.204;11.612;2022-08-01T04:33:04;3.80;;;2.03;;
6280;SDS011;3173;48.204;11.612;2022-08-01T04:35:32;4.00;;;1.95;;
6280;SDS011;3173;48.204;11.612;2022-08-01T04:37:59;5.33;;;2.40;;
6280;SDS011;3173;48.204;11.612;2022-08-01T04:40:27;3.30;;;2.20;;
6280;SDS011;3173;48.204;11.612;2022-08-01T04:42:53;2.43;;;1.90;;
6280;SDS011;3173;48.204;11.612;2022-08-01T04:45:20;5.90;;;2.30;;
6280;SDS011;3173;48.204;11.612;2022-08-01T04:47:46;2.83;;;1.83;;
6280;SDS011;3173;48.204;11.612;2022-08-01T04:50:12;2.83;;;2.00;;
6280;SDS011;3173;48.204;11.612;2022-08-01T04:52:39;3.00;;;2.17;;
6280;SDS011;3173;48.204;11.612;2022-08-01T04:55:07;4.57;;;2.30;;
6280;SDS011;3173;48.204;11.612;2022-08-01T04:57:36;6.43;;;2.07;;
6280;SDS011;3173;48.204;11.612;2022-08-01T05:00:03;2.47;;;2.00;;
6280;SDS011;3173;48.204;11.612;2022-08-01T05:02:29;3.43;;;2.17;;
6280;SDS011;3173;48.204;11.612;2022-08-01T05:04:55;4.27;;;2.23;;
6280;SDS011;3173;48.204;11.612;2022-08-01T05:07:21;7.40;;;2.20;;
6280;SDS011;3173;48.204;11.612;2022-08-01T05:09:47;12.77;;;3.20;;
6280;SDS011;3173;48.204;11.612;2022-08-01T05:12:13;3.73;;;1.97;;
6280;SDS011;3173;48.204;11.612;2022-08-01T05:14:40;2.70;;;1.97;;
6280;SDS011;3173;48.204;11.612;2022-08-01T05:17:07;4.10;;;2.00;;
6280;SDS011;3173;48.204;11.612;2022-08-01T05:19:33;9.13;;;2.43;;
6280;SDS011;3173;48.204;11.612;2022-08-01T05:22:03;4.73;;;2.10;;
6280;SDS011;3173;48.204;11.612;2022-08-01T05:24:36;6.73;;;2.00;;
6280;SDS011;3173;48.204;11.612;2022-08-01T05:27:03;4.60;;;2.40;;
6280;SDS011;3173;48.204;11.612;2022-08-01T05:29:29;2.27;;;1.90;;
6280;SDS011;3173;48.204;11.612;2022-08-01T05:31:55;6.70;;;2.07;;
6280;SDS011;3173;48.204;11.612;2022-08-01T05:34:22;4.10;;;2.40;;
6280;SDS011;3173;48.204;11.612;2022-08-01T05:36:48;4.60;;;2.40;;
6280;SDS011;3173;48.204;11.612;2022-08-01T05:39:14;5.73;;;2.03;;
6280;SDS011;3173;48.204;11.612;2022-08-01T05:41:40;2.47;;;1.90;;
6280;SDS011;3173;48.204;11.612;2022-08-01T05:44:07;2.20;;;1.97;;
6280;SDS011;3173;48.204;11.612;2022-08-01T05:46:33;5.07;;;2.17;;
6280;SDS011;3173;48.204;11.612;2022-08-01T05:48:59;2.77;;;2.10;;
6280;SDS011;3173;48.204;11.612;2022-08-01T05:51:26;5.50;;;1.90;;
6280;SDS011;3173;48.204;11.612;2022-08-01T05:53:52;4.27;;;2.40;;
6280;SDS011;3173;48.204;11.612;2022-08-01T05:56:18;2.40;;;1.80;;
6280;SDS011;3173;48.204;11.612;2022-08-01T05:58:44;6.93;;;2.53;;
6280;SDS011;3173;48.204;11.612;2022-08-01T06:01:10;4.73;;;2.33;;
6280;SDS011;3173;48.204;11.612;2022-08-01T06:03:36;4.67;;;2.10;;
6280;SDS011;3173;48.204;11.612;2022-08-01T06:06:02;3.30;;;2.03;;
6280;SDS011;3173;48.204;11.612;2022-08-01T06:08:29;7.47;;;2.30;;
6280;SDS011;3173;48.204;11.612;2022-08-01T06:10:55;3.47;;;2.10;;
6280;SDS011;3173;48.204;11.612;2022-08-01T06:13:21;4.50;;;2.53;;
6280;SDS011;3173;48.204;11.612;2022-08-01T06:15:47;3.00;;;1.87;;
6280;SDS011;3173;48.204;11.612;2022-08-01T06:18:13;3.47;;;2.30;;
6280;SDS011;3173;48.204;11.612;2022-08-01T06:20:39;4.70;;;2.30;;
6280;SDS011;3173;48.204;11.612;2022-08-01T06:23:05;8.23;;;2.20;;
6280;SDS011;3173;48.204;11.612;2022-08-01T06:25:31;4.63;;;2.23;;
6280;SDS011;3173;48.204;11.612;2022-08-01T06:27:58;4.03;;;2.13;;
6280;SDS011;3173;48.204;11.612;2022-08-01T06:30:24;4.77;;;2.20;;
6280;SDS011;3173;48.204;11.612;2022-08-01T06:32:50;6.30;;;2.30;;
6280;SDS011;3173;48.204;11.612;2022-08-01T06:35:17;7.30;;;2.50;;
6280;SDS011;3173;48.204;11.612;2022-08-01T06:37:43;2.83;;;2.10;;
6280;SDS011;3173;48.204;11.612;2022-08-01T06:40:13;3.93;;;2.70;;
6280;SDS011;3173;48.204;11.612;2022-08-01T06:42:39;6.90;;;2.20;;
6280;SDS011;3173;48.204;11.612;2022-08-01T06:45:06;3.57;;;2.33;;
6280;SDS011;3173;48.204;11.612;2022-08-01T06:47:32;3.10;;;2.10;;
6280;SDS011;3173;48.204;11.612;2022-08-01T06:49:58;3.03;;;1.90;;
6280;SDS011;3173;48.204;11.612;2022-08-01T06:52:24;6.63;;;2.30;;
6280;SDS011;3173;48.204;11.612;2022-08-01T06:54:51;3.63;;;2.53;;
6280;SDS011;3173;48.204;11.612;2022-08-01T06:57:17;3.57;;;2.07;;
6280;SDS011;3173;48.204;11.612;2022-08-01T06:59:43;4.27;;;2.03;;
6280;SDS011;3173;48.204;11.612;2022-08-01T07:02:09;7.03;;;2.30;;
6280;SDS011;3173;48.204;11.612;2022-08-01T07:04:35;4.87;;;2.20;;
6280;SDS011;3173;48.204;11.612;2022-08-01T07:07:01;3.00;;;2.30;;
6280;SDS011;3173;48.204;11.612;2022-08-01T07:09:27;2.83;;;2.23;;
6280;SDS011;3173;48.204;11.612;2022-08-01T07:11:53;6.53;;;2.07;;
6280;SDS011;3173;48.204;11.612;2022-08-01T07:14:20;5.20;;;2.30;;
6280;SDS011;3173;48.204;11.612;2022-08-01T07:16:46;3.30;;;2.30;;
6280;SDS011;3173;48.204;11.612;2022-08-01T07:19:12;3.00;;;2.60;;
6280;SDS011;3173;48.204;11.612;2022-08-01T07:21:39;2.60;;;1.90;;
6280;SDS011;3173;48.204;11.612;2022-08-01T07:24:06;7.63;;;2.57;;
6280;SDS011;3173;48.204;11.612;2022-08-01T07:26:32;4.07;;;2.07;;
6280;SDS011;3173;48.204;11.612;2022-08-01T07:28:58;2.73;;;2.13;;
6280;SDS011;3173;48.204;11.612;2022-08-01T07:31:24;4.03;;;2.03;;
6280;SDS011;3173;48.204;11.612;2022-08-01T07:33:50;5.50;;;1.87;;
6280;SDS011;3173;48.204;11.612;2022-08-01T07:36:16;2.20;;;1.90;;
6280;SDS011;3173;48.204;11.612;2022-08-01T07:38:42;3.70;;;1.83;;
6280;SDS011;3173;48.204;11.612;2022-08-01T07:41:08;4.83;;;2.67;;
6280;SDS011;3173;48.204;11.612;2022-08-01T07:43:34;4.70;;;2.50;;
6280;SDS011;3173;48.204;11.612;2022-08-01T07:46:01;5.77;;;2.20;;
6280;SDS011;3173;48.204;11.612;2022-08-01T07:48:27;3.23;;;2.10;;
6280;SDS011;3173;48.204;11.612;2022-08-01T07:50:53;3.70;;;2.60;;
6280;SDS011;3173;48.204;11.612;2022-08-01T07:53:19;6.30;;;2.43;;
6280;SDS011;3173;48.204;11.612;2022-08-01T07:55:45;3.60;;;2.00;;
6280;SDS011;3173;48.204;11.612;2022-08-01T07:58:11;5.40;;;2.63;;
6280;SDS011;3173;48.204;11.612;2022-08-01T08:00:37;3.33;;;2.30;;
6280;SDS011;3173;48.204;11.612;2022-08-01T08:03:03;3.90;;;2.60;;
6280;SDS011;3173;48.204;11.612;2022-08-01T08:05:29;8.00;;;3.53;;
6280;SDS011;3173;48.204;11.612;2022-08-01T08:07:55;9.50;;;3.03;;
6280;SDS011;3173;48.204;11.612;2022-08-01T08:10:21;3.37;;;2.60;;
6280;SDS011;3173;48.204;11.612;2022-08-01T08:12:47;3.03;;;2.20;;
6280;SDS011;3173;48.204;11.612;2022-08-01T08:15:13;4.47;;;2.57;;
6280;SDS011;3173;48.204;11.612;2022-08-01T08:17:39;4.77;;;2.67;;
6280;SDS011;3173;48.204;11.612;2022-08-01T08:20:05;6.60;;;2.50;;
6280;SDS011;3173;48.204;11.612;2022-08-01T08:22:32;4.23;;;2.80;;
6280;SDS011;3173;48.204;11.612;2022-08-01T08:24:58;3.10;;;2.60;;
6280;SDS011;3173;48.204;11.612;2022-08-01T08:27:24;5.73;;;2.23;;
6280;SDS011;3173;48.204;11.612;2022-08-01T08:29:50;2.90;;;2.40;;
6280;SDS011;3173;48.204;11.612;2022-08-01T08:32:16;5.83;;;2.60;;
6280;SDS011;3173;48.204;11.612;2022-08-01T08:34:42;3.73;;;2.30;;
6280;SDS011;3173;48.204;11.612;2022-08-01T08:37:08;6.60;;;2.47;;
6280;SDS011;3173;48.204;11.612;2022-08-01T08:39:35;2.90;;;2.00;;
6280;SDS011;3173;48.204;11.612;2022-08-01T08:42:01;3.80;;;2.03;;
6280;SDS011;3173;48.204;11.612;2022-08-01T08:44:27;4.80;;;2.50;;
6280;SDS011;3173;48.204;11.612;2022-08-01T08:46:53;3.40;;;2.23;;
6280;SDS011;3173;48.204;11.612;2022-08-01T08:49:24;2.40;;;1.93;;
6280;SDS011;3173;48.204;11.612;2022-08-01T08:51:52;5.80;;;2.80;;
6280;SDS011;3173;48.204;11.612;2022-08-01T08:54:19;9.60;;;2.70;;
6280;SDS011;3173;48.204;11.612;2022-08-01T08:56:46;4.83;;;3.07;;
6280;SDS011;3173;48.204;11.612;2022-08-01T08:59:12;5.73;;;2.30;;
6280;SDS011;3173;48.204;11.612;2022-08-01T09:01:38;6.80;;;2.50;;
6280;SDS011;3173;48.204;11.612;2022-08-01T09:04:04;2.10;;;1.60;;
6280;SDS011;3173;48.204;11.612;2022-08-01T09:06:31;3.73;;;2.20;;
6280;SDS011;3173;48.204;11.612;2022-08-01T09:08:57;2.33;;;2.10;;
6280;SDS011;3173;48.204;11.612;2022-08-01T09:11:23;9.77;;;2.33;;
6280;SDS011;3173;48.204;11.612;2022-08-01T09:16:28;4.07;;;1.97;;
6280;SDS011;3173;48.204;11.612;2022-08-01T09:18:54;4.37;;;2.50;;
6280;SDS011;3173;48.204;11.612;2022-08-01T09:21:31;6.67;;;2.00;;
6280;SDS011;3173;48.204;11.612;2022-08-01T09:23:57;2.30;;;2.10;;
6280;SDS011;3173;48.204;11.612;2022-08-01T09:26:29;6.00;;;2.27;;
6280;SDS011;3173;48.204;11.612;2022-08-01T09:28:55;4.70;;;1.80;;
6280;SDS011;3173;48.204;11.612;2022-08-01T09:31:21;4.73;;;2.10;;
6280;SDS011;3173;48.204;11.612;2022-08-01T09:33:52;3.30;;;1.90;;
6280;SDS011;3173;48.204;11.612;2022-08-01T09:36:19;3.43;;;2.23;;
6280;SDS011;3173;48.204;11.612;2022-08-01T09:38:46;6.90;;;2.10;;
6280;SDS011;3173;48.204;11.612;2022-08-01T09:41:12;1.80;;;1.60;;
6280;SDS011;3173;48.204;11.612;2022-08-01T09:43:38;4.20;;;2.03;;
6280;SDS011;3173;48.204;11.612;2022-08-01T09:46:08;2.10;;;1.60;;
6280;SDS011;3173;48.204;11.612;2022-08-01T09:48:36;3.63;;;1.70;;
6280;SDS011;3173;48.204;11.612;2022-08-01T09:51:04;3.03;;;2.03;;
6280;SDS011;3173;48.204;11.612;2022-08-01T09:53:43;3.20;;;1.43;;
6280;SDS011;3173;48.204;11.612;2022-08-01T09:56:10;2.53;;;1.60;;
6280;SDS011;3173;48.204;11.612;2022-08-01T09:58:49;3.07;;;2.00;;
6280;SDS011;3173;48.204;11.612;2022-08-01T10:01:15;2.80;;;1.60;;
6280;SDS011;3173;48.204;11.612;2022-08-01T10:03:41;3.93;;;1.70;;
6280;SDS011;3173;48.204;11.612;2022-08-01T10:06:19;1.83;;;1.30;;
6280;SDS011;3173;48.204;11.612;2022-08-01T10:08:46;1.60;;;1.03;;
6280;SDS011;3173;48.204;11.612;2022-08-01T10:11:13;1.87;;;1.10;;
6280;SDS011;3173;48.204;11.612;2022-08-01T10:13:39;4.50;;;1.50;;
6280;SDS011;3173;48.204;11.612;2022-08-01T10:16:05;3.03;;;1.30;;
6280;SDS011;3173;48.204;11.612;2022-08-01T10:18:32;2.00;;;1.10;;
6280;SDS011;3173;48.204;11.612;2022-08-01T10:20:59;2.90;;;1.30;;
6280;SDS011;3173;48.204;11.612;2022-08-01T10:23:30;1.80;;;1.30;;
6280;SDS011;3173;48.204;11.612;2022-08-01T10:25:58;1.80;;;1.47;;
6280;SDS011;3173;48.204;11.612;2022-08-01T10:28:26;2.33;;;1.73;;
6280;SDS011;3173;48.204;11.612;2022-08-01T10:30:52;1.23;;;1.00;;
6280;SDS011;3173;48.204;11.612;2022-08-01T10:33:20;1.93;;;1.43;;
6280;SDS011;3173;48.204;11.612;2022-08-01T10:35:47;1.87;;;1.20;;
6280;SDS011;3173;48.204;11.612;2022-08-01T10:38:13;1.90;;;1.50;;
6280;SDS011;3173;48.204;11.612;2022-08-01T10:40:40;1.50;;;1.10;;
6280;SDS011;3173;48.204;11.612;2022-08-01T10:43:06;2.20;;;1.00;;
6280;SDS011;3173;48.204;11.612;2022-08-01T10:45:34;7.23;;;1.10;;
6280;SDS011;3173;48.204;11.612;2022-08-01T10:50:34;3.20;;;1.00;;
6280;SDS011;3173;48.204;11.612;2022-08-01T10:53:03;2.37;;;1.07;;
6280;SDS011;3173;48.204;11.612;2022-08-01T10:55:29;1.53;;;1.00;;
6280;SDS011;3173;48.204;11.612;2022-08-01T10:58:10;5.60;;;1.40;;
6280;SDS011;3173;48.204;11.612;2022-08-01T11:00:36;1.63;;;1.00;;
6280;SDS011;3173;48.204;11.612;2022-08-01T11:03:03;4.33;;;1.20;;
6280;SDS011;3173;48.204;11.612;2022-08-01T11:05:33;1.63;;;0.90;;
6280;SDS011;3173;48.204;11.612;2022-08-01T11:08:03;1.30;;;0.90;;
6280;SDS011;3173;48.204;11.612;2022-08-01T11:10:36;2.20;;;0.83;;
6280;SDS011;3173;48.204;11.612;2022-08-01T11:13:03;1.40;;;1.00;;
6280;SDS011;3173;48.204;11.612;2022-08-01T11:15:32;1.33;;;0.90;;
6280;SDS011;3173;48.204;11.612;2022-08-01T11:17:59;2.27;;;1.17;;
6280;SDS011;3173;48.204;11.612;2022-08-01T11:20:33;2.83;;;1.00;;
6280;SDS011;3173;48.204;11.612;2022-08-01T11:33:08;1.10;;;0.80;;
6280;SDS011;3173;48.204;11.612;2022-08-01T11:35:36;1.80;;;0.90;;
6280;SDS011;3173;48.204;11.612;2022-08-01T11:38:22;2.50;;;0.90;;
6280;SDS011;3173;48.204;11.612;2022-08-01T11:41:03;1.73;;;0.80;;
6280;SDS011;3173;48.204;11.612;2022-08-01T11:43:34;1.93;;;0.80;;
6280;SDS011;3173;48.204;11.612;2022-08-01T11:46:00;3.53;;;1.03;;
6280;SDS011;3173;48.204;11.612;2022-08-01T11:48:27;3.33;;;1.07;;
6280;SDS011;3173;48.204;11.612;2022-08-01T11:50:56;1.33;;;0.90;;
6280;SDS011;3173;48.204;11.612;2022-08-01T11:53:22;2.70;;;1.13;;
6280;SDS011;3173;48.204;11.612;2022-08-01T11:55:49;2.13;;;0.80;;
6280;SDS011;3173;48.204;11.612;2022-08-01T11:58:16;2.63;;;1.00;;
6280;SDS011;3173;48.204;11.612;2022-08-01T12:00:49;2.13;;;1.00;;
6280;SDS011;3173;48.204;11.612;2022-08-01T12:03:15;2.60;;;0.90;;
6280;SDS011;3173;48.204;11.612;2022-08-01T12:05:43;1.63;;;0.83;;
6280;SDS011;3173;48.204;11.612;2022-08-01T12:08:09;1.97;;;0.90;;
6280;SDS011;3173;48.204;11.612;2022-08-01T12:10:35;5.70;;;1.00;;
6280;SDS011;3173;48.204;11.612;2022-08-01T12:13:03;2.40;;;0.80;;
6280;SDS011;3173;48.204;11.612;2022-08-01T12:15:30;1.30;;;1.00;;
6280;SDS011;3173;48.204;11.612;2022-08-01T12:17:57;1.20;;;0.90;;
6280;SDS011;3173;48.204;11.612;2022-08-01T12:20:23;1.27;;;0.83;;
6280;SDS011;3173;48.204;11.612;2022-08-01T12:22:52;4.57;;;0.80;;
6280;SDS011;3173;48.204;11.612;2022-08-01T12:25:19;1.20;;;0.90;;
6280;SDS011;3173;48.204;11.612;2022-08-01T12:27:45;1.83;;;0.90;;
6280;SDS011;3173;48.204;11.612;2022-08-01T12:30:12;1.00;;;0.70;;
6280;SDS011;3173;48.204;11.612;2022-08-01T12:32:39;2.40;;;1.13;;
6280;SDS011;3173;48.204;11.612;2022-08-01T12:35:06;7.93;;;2.33;;
6280;SDS011;3173;48.204;11.612;2022-08-01T12:37:36;6.50;;;1.00;;
6280;SDS011;3173;48.204;11.612;2022-08-01T12:40:22;1.50;;;0.70;;
6280;SDS011;3173;48.204;11.612;2022-08-01T12:42:49;1.00;;;0.70;;
6280;SDS011;3173;48.204;11.612;2022-08-01T12:45:17;2.13;;;0.70;;
6280;SDS011;3173;48.204;11.612;2022-08-01T12:47:43;1.20;;;0.97;;
6280;SDS011;3173;48.204;11.612;2022-08-01T12:50:16;2.10;;;1.00;;
6280;SDS011;3173;48.204;11.612;2022-08-01T12:52:43;1.73;;;0.80;;
6280;SDS011;3173;48.204;11.612;2022-08-01T12:55:13;2.30;;;1.17;;
6280;SDS011;3173;48.204;11.612;2022-08-01T12:57:41;3.93;;;1.07;;
6280;SDS011;3173;48.204;11.612;2022-08-01T13:00:16;2.50;;;0.80;;
6280;SDS011;3173;48.204;11.612;2022-08-01T13:02:43;1.50;;;1.00;;
6280;SDS011;3173;48.204;11.612;2022-08-01T13:05:09;2.40;;;0.97;;
6280;SDS011;3173;48.204;11.612;2022-08-01T13:10:02;2.20;;;0.90;;
6280;SDS011;3173;48.204;11.612;2022-08-01T13:12:28;1.73;;;0.83;;
6280;SDS011;3173;48.204;11.612;2022-08-01T13:14:54;2.80;;;1.23;;
6280;SDS011;3173;48.204;11.612;2022-08-01T13:17:30;2.40;;;0.90;;
6280;SDS011;3173;48.204;11.612;2022-08-01T13:19:56;2.17;;;1.00;;
6280;SDS011;3173;48.204;11.612;2022-08-01T13:22:31;1.93;;;1.10;;
6280;SDS011;3173;48.204;11.612;2022-08-01T13:25:09;2.43;;;0.90;;
6280;SDS011;3173;48.204;11.612;2022-08-01T13:27:35;2.70;;;1.00;;
6280;SDS011;3173;48.204;11.612;2022-08-01T13:30:11;2.47;;;1.10;;
6280;SDS011;3173;48.204;11.612;2022-08-01T13:32:37;1.87;;;0.90;;
6280;SDS011;3173;48.204;11.612;2022-08-01T13:35:04;1.30;;;0.90;;
6280;SDS011;3173;48.204;11.612;2022-08-01T13:37:30;4.10;;;0.73;;
6280;SDS011;3173;48.204;11.612;2022-08-01T13:39:56;2.47;;;0.90;;
6280;SDS011;3173;48.204;11.612;2022-08-01T13:42:22;3.83;;;0.97;;
6280;SDS011;3173;48.204;11.612;2022-08-01T13:44:48;1.80;;;1.10;;
6280;SDS011;3173;48.204;11.612;2022-08-01T13:47:14;1.23;;;0.80;;
6280;SDS011;3173;48.204;11.612;2022-08-01T13:49:40;2.07;;;0.90;;
6280;SDS011;3173;48.204;11.612;2022-08-01T13:52:06;2.90;;;0.93;;
6280;SDS011;3173;48.204;11.612;2022-08-01T13:54:32;3.53;;;0.70;;
6280;SDS011;3173;48.204;11.612;2022-08-01T13:56:58;1.30;;;0.60;;
6280;SDS011;3173;48.204;11.612;2022-08-01T13:59:24;1.47;;;0.70;;
6280;SDS011;3173;48.204;11.612;2022-08-01T14:01:50;1.80;;;0.80;;
6280;SDS011;3173;48.204;11.612;2022-08-01T14:04:16;1.67;;;0.80;;
6280;SDS011;3173;48.204;11.612;2022-08-01T14:06:42;1.60;;;0.90;;
6280;SDS011;3173;48.204;11.612;2022-08-01T14:09:08;2.27;;;0.70;;
6280;SDS011;3173;48.204;11.612;2022-08-01T14:11:34;1.90;;;0.80;;
6280;SDS011;3173;48.204;11.612;2022-08-01T14:14:00;1.50;;;0.80;;
6280;SDS011;3173;48.204;11.612;2022-08-01T14:16:26;1.20;;;0.80;;
6280;SDS011;3173;48.204;11.612;2022-08-01T14:18:52;2.47;;;0.93;;
6280;SDS011;3173;48.204;11.612;2022-08-01T14:21:18;3.93;;;0.80;;
6280;SDS011;3173;48.204;11.612;2022-08-01T14:23:44;2.17;;;0.90;;
6280;SDS011;3173;48.204;11.612;2022-08-01T14:26:11;4.13;;;1.00;;
6280;SDS011;3173;48.204;11.612;2022-08-01T14:28:37;2.03;;;1.00;;
6280;SDS011;3173;48.204;11.612;2022-08-01T14:31:03;1.67;;;1.00;;
6280;SDS011;3173;48.204;11.612;2022-08-01T14:33:32;1.63;;;0.90;;
6280;SDS011;3173;48.204;11.612;2022-08-01T14:35:58;2.07;;;1.00;;
6280;SDS011;3173;48.204;11.612;2022-08-01T14:38:24;4.50;;;1.00;;
6280;SDS011;3173;48.204;11.612;2022-08-01T14:40:50;2.37;;;0.90;;
6280;SDS011;3173;48.204;11.612;2022-08-01T14:43:18;5.63;;;1.10;;
6280;SDS011;3173;48.204;11.612;2022-08-01T14:45:44;2.43;;;1.40;;
6280;SDS011;3173;48.204;11.612;2022-08-01T14:48:10;1.83;;;1.10;;
6280;SDS011;3173;48.204;11.612;2022-08-01T14:50:36;1.77;;;1.03;;
6280;SDS011;3173;48.204;11.612;2022-08-01T14:53:02;2.37;;;1.30;;
6280;SDS011;3173;48.204;11.612;2022-08-01T14:55:28;1.40;;;0.90;;
6280;SDS011;3173;48.204;11.612;2022-08-01T14:57:54;1.13;;;0.83;;
6280;SDS011;3173;48.204;11.612;2022-08-01T15:00:20;1.70;;;1.10;;
6280;SDS011;3173;48.204;11.612;2022-08-01T15:02:46;1.40;;;1.00;;
6280;SDS011;3173;48.204;11.612;2022-08-01T15:05:12;2.43;;;0.90;;
6280;SDS011;3173;48.204;11.612;2022-08-01T15:07:38;2.47;;;1.10;;
6280;SDS011;3173;48.204;11.612;2022-08-01T15:10:04;3.30;;;1.30;;
6280;SDS011;3173;48.204;11.612;2022-08-01T15:12:30;4.23;;;1.70;;
6280;SDS011;3173;48.204;11.612;2022-08-01T15:14:56;14.07;;;1.50;;
6280;SDS011;3173;48.204;11.612;2022-08-01T15:17:23;4.80;;;1.20;;
6280;SDS011;3173;48.204;11.612;2022-08-01T15:19:51;10.03;;;1.60;;
6280;SDS011;3173;48.204;11.612;2022-08-01T15:22:17;17.37;;;1.50;;
6280;SDS011;3173;48.204;11.612;2022-08-01T15:24:44;4.30;;;1.30;;
6280;SDS011;3173;48.204;11.612;2022-08-01T15:27:10;9.87;;;1.40;;
6280;SDS011;3173;48.204;11.612;2022-08-01T15:29:36;5.83;;;1.20;;